createdAt,value
2017-06-17T00:01:13.644Z,42.79
2017-06-17T00:02:13.568Z,42.99
2017-06-17T00:03:13.508Z,42.41
2017-06-17T00:04:13.444Z,42.99
2017-06-17T00:05:13.390Z,42.99
2017-06-17T00:06:13.323Z,42.41
2017-06-17T00:07:13.260Z,42.79
2017-06-17T00:08:12.895Z,42.99
2017-06-17T00:09:13.135Z,42.41
2017-06-17T00:10:13.073Z,42.5
2017-06-17T00:11:13.213Z,42.79
2017-06-17T00:12:12.647Z,42.6
2017-06-17T00:13:12.889Z,42.79
2017-06-17T00:14:12.826Z,42.89
2017-06-17T00:15:12.470Z,42.99
2017-06-17T00:16:12.701Z,42.41
2017-06-17T00:17:12.364Z,42.5
2017-06-17T00:18:12.276Z,42.79
2017-06-17T00:19:12.218Z,42.89
2017-06-17T00:20:12.457Z,42.89
2017-06-17T00:21:12.401Z,42.41
2017-06-17T00:22:12.331Z,42.79
2017-06-17T00:23:12.273Z,42.41
2017-06-17T00:24:12.205Z,42.79
2017-06-17T00:25:12.148Z,42.7
2017-06-17T00:26:12.083Z,42.99
2017-06-17T00:27:12.025Z,42.41
2017-06-17T00:28:11.959Z,42.79
2017-06-17T00:29:11.899Z,42.41
2017-06-17T00:30:11.834Z,42.79
2017-06-17T00:31:11.801Z,42.89
2017-06-17T00:32:11.710Z,42.79
2017-06-17T00:33:11.649Z,42.21
2017-06-17T00:34:11.586Z,42.99
2017-06-17T00:35:11.527Z,42.89
2017-06-17T00:36:11.467Z,42.99
2017-06-17T00:37:11.401Z,42.79
2017-06-17T00:38:11.339Z,42.79
2017-06-17T00:39:11.277Z,42.99
2017-06-17T00:40:11.216Z,42.5
2017-06-17T00:41:11.158Z,42.79
2017-06-17T00:42:11.093Z,42.79
2017-06-17T00:43:11.031Z,42.5
2017-06-17T00:44:10.967Z,42.5
2017-06-17T00:45:10.907Z,42.41
2017-06-17T00:46:10.844Z,42.79
2017-06-17T00:47:10.784Z,42.41
2017-06-17T00:48:10.721Z,42.41
2017-06-17T00:49:10.658Z,42.79
2017-06-17T00:50:10.623Z,42.41
2017-06-17T00:51:10.538Z,42.41
2017-06-17T00:52:10.473Z,42.89
2017-06-17T00:53:10.410Z,42.31
2017-06-17T00:54:10.372Z,42.41
2017-06-17T00:55:10.288Z,42.41
2017-06-17T00:56:10.228Z,42.41
2017-06-17T00:57:10.163Z,42.41
2017-06-17T00:58:10.106Z,42.41
2017-06-17T00:59:10.037Z,42.41
2017-06-17T01:00:09.981Z,42.41
2017-06-17T01:01:09.917Z,42.41
2017-06-17T01:02:09.857Z,42.79
2017-06-17T01:03:09.794Z,42.31
2017-06-17T01:04:09.730Z,42.41
2017-06-17T01:05:09.672Z,42.41
2017-06-17T01:06:09.305Z,42.41
2017-06-17T01:07:09.544Z,42.41
2017-06-17T01:08:09.181Z,42.99
2017-06-17T01:09:09.421Z,42.89
2017-06-17T01:10:09.360Z,42.41
2017-06-17T01:11:09.298Z,42.99
2017-06-17T01:12:09.236Z,42.79
2017-06-17T01:13:09.177Z,42.79
2017-06-17T01:14:09.109Z,42.89
2017-06-17T01:15:09.048Z,42.89
2017-06-17T01:16:08.685Z,42.97
2017-06-17T01:17:08.923Z,42.41
2017-06-17T01:18:08.565Z,42.7
2017-06-17T01:19:08.800Z,42.79
2017-06-17T01:20:08.742Z,42.41
2017-06-17T01:21:08.678Z,42.79
2017-06-17T01:22:08.617Z,42.7
2017-06-17T01:23:08.554Z,42.99
2017-06-17T01:24:08.492Z,42.99
2017-06-17T01:25:08.430Z,42.99
2017-06-17T01:26:08.368Z,42.7
2017-06-17T01:27:08.305Z,42.41
2017-06-17T01:28:08.244Z,42.31
2017-06-17T01:29:08.180Z,42.41
2017-06-17T01:30:08.121Z,42.89
2017-06-17T01:31:08.058Z,42.99
2017-06-17T01:32:07.997Z,42.87
2017-06-17T01:33:07.933Z,42.99
2017-06-17T01:34:07.874Z,42.79
2017-06-17T01:35:07.509Z,42.41
2017-06-17T01:36:07.446Z,42.79
2017-06-17T01:37:07.384Z,42.21
2017-06-17T01:38:07.627Z,42.79
2017-06-17T01:39:07.563Z,42.99
2017-06-17T01:40:07.199Z,42.79
2017-06-17T01:41:07.136Z,42.99
2017-06-17T01:42:07.075Z,42.89
2017-06-17T01:43:07.014Z,42.99
2017-06-17T01:44:07.256Z,42.89
2017-06-17T01:45:07.190Z,42.89
2017-06-17T01:46:07.129Z,42.5
2017-06-17T01:47:07.068Z,42.41
2017-06-17T01:48:07.004Z,42.21
2017-06-17T01:49:06.948Z,42.41
2017-06-17T01:50:06.884Z,42.41
2017-06-17T01:51:06.820Z,42.99
2017-06-17T01:52:06.758Z,42.89
2017-06-17T01:53:06.696Z,42.41
2017-06-17T01:54:06.633Z,42.99
2017-06-17T01:55:06.573Z,42.79
2017-06-17T01:56:06.509Z,42.41
2017-06-17T01:57:06.446Z,42.99
2017-06-17T01:58:06.389Z,42.99
2017-06-17T01:59:06.526Z,42.7
2017-06-17T02:00:06.263Z,43.06
2017-06-17T02:01:06.202Z,42.6
2017-06-17T02:02:06.139Z,42.68
2017-06-17T02:03:06.077Z,42.6
2017-06-17T02:04:06.012Z,42.99
2017-06-17T02:05:05.954Z,42.58
2017-06-17T02:06:05.893Z,42.41
2017-06-17T02:07:05.526Z,42.5
2017-06-17T02:08:05.765Z,42.79
2017-06-17T02:09:05.704Z,42.79
2017-06-17T02:10:05.641Z,42.87
2017-06-17T02:11:05.582Z,42.99
2017-06-17T02:12:05.216Z,42.7
2017-06-17T02:13:05.454Z,42.6
2017-06-17T02:14:05.395Z,42.58
2017-06-17T02:15:05.333Z,42.39
2017-06-17T02:16:05.269Z,42.68
2017-06-17T02:17:05.206Z,42.6
2017-06-17T02:18:05.146Z,42.6
2017-06-17T02:19:05.086Z,42.99
2017-06-17T02:20:05.023Z,42.39
2017-06-17T02:21:04.961Z,42.58
2017-06-17T02:22:04.900Z,42.58
2017-06-17T02:23:04.537Z,42.39
2017-06-17T02:24:04.472Z,42.6
2017-06-17T02:25:04.713Z,42.77
2017-06-17T02:26:04.651Z,42.68
2017-06-17T02:27:04.588Z,42.48
2017-06-17T02:28:04.527Z,42.58
2017-06-17T02:29:04.466Z,42.48
2017-06-17T02:30:04.100Z,42.58
2017-06-17T02:31:04.339Z,42.48
2017-06-17T02:32:04.280Z,42.58
2017-06-17T02:33:04.220Z,42.58
2017-06-17T02:34:04.159Z,42.58
2017-06-17T02:35:04.094Z,42.5
2017-06-17T02:36:04.031Z,42.68
2017-06-17T02:37:03.970Z,42.6
2017-06-17T02:38:03.905Z,42.58
2017-06-17T02:39:03.847Z,42.7
2017-06-17T02:40:03.783Z,42.58
2017-06-17T02:41:03.724Z,42.7
2017-06-17T02:42:03.656Z,42.48
2017-06-17T02:43:03.597Z,42.68
2017-06-17T02:44:03.234Z,42.48
2017-06-17T02:45:03.473Z,42.58
2017-06-17T02:46:03.412Z,42.68
2017-06-17T02:47:03.350Z,42.48
2017-06-17T02:48:02.986Z,42.7
2017-06-17T02:49:03.224Z,42.99
2017-06-17T02:50:03.164Z,42.58
2017-06-17T02:51:03.100Z,42.79
2017-06-17T02:52:03.036Z,42.58
2017-06-17T02:53:02.975Z,42.58
2017-06-17T02:54:02.914Z,42.48
2017-06-17T02:55:02.851Z,42.6
2017-06-17T02:56:02.788Z,42.58
2017-06-17T02:57:02.727Z,42.7
2017-06-17T02:58:02.363Z,42.48
2017-06-17T02:59:02.603Z,42.6
2017-06-17T03:00:02.542Z,42.58
2017-06-17T03:01:02.480Z,42.97
2017-06-17T03:02:02.415Z,42.58
2017-06-17T03:03:02.356Z,42.58
2017-06-17T03:04:02.293Z,42.58
2017-06-17T03:05:02.229Z,42.41
2017-06-17T03:06:01.865Z,42.48
2017-06-17T03:07:02.104Z,42.68
2017-06-17T03:08:02.045Z,42.68
2017-06-17T03:09:01.982Z,42.68
2017-06-17T03:10:01.923Z,42.58
2017-06-17T03:11:01.861Z,42.48
2017-06-17T03:12:01.796Z,42.5
2017-06-17T03:13:01.739Z,42.68
2017-06-17T03:14:01.673Z,42.58
2017-06-17T03:15:01.313Z,42.68
2017-06-17T03:16:01.553Z,42.77
2017-06-17T03:17:01.498Z,42.68
2017-06-17T03:18:01.424Z,42.68
2017-06-17T03:19:01.366Z,42.58
2017-06-17T03:20:01.303Z,42.58
2017-06-17T03:21:01.238Z,42.97
2017-06-17T03:22:00.882Z,42.79
2017-06-17T03:23:01.117Z,42.7
2017-06-17T03:24:01.056Z,42.68
2017-06-17T03:25:00.990Z,42.68
2017-06-17T03:26:00.928Z,42.77
2017-06-17T03:27:00.869Z,42.5
2017-06-17T03:28:00.806Z,42.58
2017-06-17T03:29:00.746Z,42.68
2017-06-17T03:30:00.682Z,42.79
2017-06-17T03:31:00.626Z,42.7
2017-06-17T03:32:00.562Z,42.99
2017-06-17T03:33:00.492Z,42.68
2017-06-17T03:34:00.437Z,42.77
2017-06-17T03:35:00.370Z,42.79
2017-06-17T03:36:00.307Z,42.6
2017-06-17T03:37:00.246Z,42.97
2017-06-17T03:38:00.182Z,42.68
2017-06-17T03:39:00.155Z,42.79
2017-06-17T03:40:00.058Z,42.97
2017-06-17T03:41:00.001Z,42.87
2017-06-17T03:41:59.935Z,42.68
2017-06-17T03:42:59.875Z,42.77
2017-06-17T03:43:59.812Z,42.87
2017-06-17T03:44:59.750Z,42.58
2017-06-17T03:45:59.686Z,42.68
2017-06-17T03:46:59.325Z,42.77
2017-06-17T03:47:59.562Z,42.7
2017-06-17T03:48:59.505Z,42.97
2017-06-17T03:49:59.439Z,42.48
2017-06-17T03:50:59.378Z,42.79
2017-06-17T03:51:59.313Z,42.58
2017-06-17T03:52:59.253Z,42.58
2017-06-17T03:53:59.190Z,42.41
2017-06-17T03:54:59.127Z,42.77
2017-06-17T03:55:59.068Z,42.77
2017-06-17T03:56:59.003Z,42.48
2017-06-17T03:57:58.945Z,42.58
2017-06-17T03:58:58.884Z,42.97
2017-06-17T03:59:58.825Z,42.58
2017-06-17T04:00:58.760Z,42.87
2017-06-17T04:01:58.393Z,42.58
2017-06-17T04:02:58.632Z,42.87
2017-06-17T04:03:58.569Z,42.58
2017-06-17T04:04:58.506Z,42.77
2017-06-17T04:05:58.447Z,42.68
2017-06-17T04:06:58.386Z,42.68
2017-06-17T04:07:58.323Z,42.48
2017-06-17T04:08:58.262Z,42.58
2017-06-17T04:09:58.198Z,42.19
2017-06-17T04:10:58.137Z,42.39
2017-06-17T04:11:58.075Z,42.1
2017-06-17T04:12:58.012Z,41.81
2017-06-17T04:13:57.948Z,42
2017-06-17T04:14:57.890Z,41.81
2017-06-17T04:15:57.824Z,41.71
2017-06-17T04:16:57.762Z,41.91
2017-06-17T04:17:57.699Z,41.52
2017-06-17T04:18:57.638Z,41.61
2017-06-17T04:19:57.575Z,41.61
2017-06-17T04:20:57.515Z,41.81
2017-06-17T04:21:57.455Z,42
2017-06-17T04:22:57.391Z,41.71
2017-06-17T04:23:57.326Z,41.91
2017-06-17T04:24:57.266Z,41.61
2017-06-17T04:25:57.206Z,41.52
2017-06-17T04:26:57.140Z,41.81
2017-06-17T04:27:57.079Z,41.71
2017-06-17T04:28:57.016Z,41.81
2017-06-17T04:29:56.956Z,41.52
2017-06-17T04:30:56.890Z,41.71
2017-06-17T04:31:56.832Z,41.71
2017-06-17T04:32:56.768Z,42
2017-06-17T04:33:56.705Z,41.81
2017-06-17T04:34:56.645Z,41.71
2017-06-17T04:35:56.582Z,41.61
2017-06-17T04:36:56.533Z,41.71
2017-06-17T04:37:56.455Z,41.81
2017-06-17T04:38:56.394Z,41.23
2017-06-17T04:39:56.029Z,41.61
2017-06-17T04:40:55.970Z,41.61
2017-06-17T04:41:55.905Z,41.81
2017-06-17T04:42:56.143Z,41.61
2017-06-17T04:43:56.081Z,41.61
2017-06-17T04:44:55.718Z,41.33
2017-06-17T04:45:55.958Z,41.42
2017-06-17T04:46:55.898Z,41.61
2017-06-17T04:47:55.533Z,41.71
2017-06-17T04:48:55.773Z,41.61
2017-06-17T04:49:55.708Z,41.52
2017-06-17T04:50:55.649Z,41.52
2017-06-17T04:51:55.587Z,41.61
2017-06-17T04:52:55.524Z,41.61
2017-06-17T04:53:55.159Z,41.52
2017-06-17T04:54:55.398Z,41.61
2017-06-17T04:55:55.339Z,41.52
2017-06-17T04:56:55.281Z,41.52
2017-06-17T04:57:55.213Z,41.52
2017-06-17T04:58:54.851Z,41.52
2017-06-17T04:59:55.088Z,41.61
2017-06-17T05:00:55.027Z,41.52
2017-06-17T05:01:54.663Z,41.61
2017-06-17T05:02:54.904Z,41.42
2017-06-17T05:03:54.836Z,41.33
2017-06-17T05:04:54.778Z,41.81
2017-06-17T05:05:54.865Z,41.61
2017-06-17T05:06:54.655Z,41.42
2017-06-17T05:07:54.588Z,41.61
2017-06-17T05:08:54.526Z,41.52
2017-06-17T05:09:54.462Z,41.42
2017-06-17T05:10:54.402Z,41.71
2017-06-17T05:11:54.337Z,41.91
2017-06-17T05:12:54.277Z,41.23
2017-06-17T05:13:54.214Z,41.81
2017-06-17T05:14:54.149Z,41.91
2017-06-17T05:15:54.089Z,41.71
2017-06-17T05:16:54.027Z,41.71
2017-06-17T05:17:53.964Z,41.52
2017-06-17T05:18:53.902Z,41.81
2017-06-17T05:19:53.837Z,41.61
2017-06-17T05:20:53.777Z,41.52
2017-06-17T05:21:53.716Z,41.61
2017-06-17T05:22:53.652Z,41.81
2017-06-17T05:23:53.589Z,41.81
2017-06-17T05:24:53.530Z,41.61
2017-06-17T05:25:53.466Z,41.52
2017-06-17T05:26:53.404Z,41.81
2017-06-17T05:27:53.342Z,41.71
2017-06-17T05:28:53.275Z,41.81
2017-06-17T05:29:53.214Z,41.81
2017-06-17T05:30:53.153Z,41.4
2017-06-17T05:31:53.095Z,41.61
2017-06-17T05:32:53.027Z,41.52
2017-06-17T05:33:52.964Z,41.81
2017-06-17T05:34:52.902Z,41.91
2017-06-17T05:35:52.839Z,41.4
2017-06-17T05:36:52.779Z,41.42
2017-06-17T05:37:52.714Z,41.42
2017-06-17T05:38:52.655Z,41.5
2017-06-17T05:39:52.592Z,41.61
2017-06-17T05:40:52.528Z,41.69
2017-06-17T05:41:52.467Z,41.5
2017-06-17T05:42:52.404Z,41.42
2017-06-17T05:43:52.337Z,41.69
2017-06-17T05:44:52.278Z,41.61
2017-06-17T05:45:52.215Z,41.5
2017-06-17T05:46:52.153Z,41.4
2017-06-17T05:47:51.789Z,41.5
2017-06-17T05:48:52.030Z,41.5
2017-06-17T05:49:51.967Z,41.42
2017-06-17T05:50:51.905Z,41.71
2017-06-17T05:51:51.840Z,41.42
2017-06-17T05:52:51.784Z,41.42
2017-06-17T05:53:51.715Z,41.6
2017-06-17T05:54:51.651Z,41.78
2017-06-17T05:55:51.290Z,41.78
2017-06-17T05:56:51.224Z,41.69
2017-06-17T05:57:51.463Z,41.4
2017-06-17T05:58:51.401Z,41.6
2017-06-17T05:59:51.342Z,41.78
2017-06-17T06:00:51.285Z,41.69
2017-06-17T06:01:51.213Z,41.6
2017-06-17T06:02:51.174Z,41.4
2017-06-17T06:03:51.094Z,41.6
2017-06-17T06:04:51.058Z,41.6
2017-06-17T06:05:50.966Z,41.5
2017-06-17T06:06:50.905Z,41.6
2017-06-17T06:07:50.841Z,41.6
2017-06-17T06:08:50.780Z,41.69
2017-06-17T06:09:50.715Z,41.5
2017-06-17T06:10:50.651Z,41.69
2017-06-17T06:11:50.591Z,41.69
2017-06-17T06:12:50.528Z,41.6
2017-06-17T06:13:50.463Z,41.5
2017-06-17T06:14:50.410Z,41.6
2017-06-17T06:15:50.341Z,41.6
2017-06-17T06:16:50.276Z,41.6
2017-06-17T06:17:50.213Z,41.3
2017-06-17T06:18:50.151Z,41.78
2017-06-17T06:19:49.787Z,41.78
2017-06-17T06:20:50.027Z,41.6
2017-06-17T06:21:49.965Z,41.4
2017-06-17T06:22:49.901Z,41.4
2017-06-17T06:23:49.839Z,41.6
2017-06-17T06:24:49.775Z,41.6
2017-06-17T06:25:49.412Z,41.6
2017-06-17T06:26:49.652Z,41.78
2017-06-17T06:27:49.593Z,41.69
2017-06-17T06:28:49.525Z,41.88
2017-06-17T06:29:49.466Z,41.6
2017-06-17T06:30:49.402Z,41.4
2017-06-17T06:31:49.339Z,41.78
2017-06-17T06:32:49.276Z,41.69
2017-06-17T06:33:48.913Z,41.69
2017-06-17T06:34:49.152Z,41.4
2017-06-17T06:35:49.089Z,41.69
2017-06-17T06:36:49.028Z,41.6
2017-06-17T06:37:48.963Z,41.6
2017-06-17T06:38:48.899Z,41.78
2017-06-17T06:39:48.836Z,41.6
2017-06-17T06:40:48.775Z,41.78
2017-06-17T06:41:48.711Z,41.5
2017-06-17T06:42:48.648Z,41.6
2017-06-17T06:43:48.585Z,41.78
2017-06-17T06:44:48.525Z,41.5
2017-06-17T06:45:48.461Z,41.5
2017-06-17T06:46:48.098Z,41.6
2017-06-17T06:47:48.037Z,41.78
2017-06-17T06:48:47.973Z,41.2
2017-06-17T06:49:47.911Z,41.5
2017-06-17T06:50:47.846Z,41.5
2017-06-17T06:51:48.086Z,41.5
2017-06-17T06:52:48.024Z,41.5
2017-06-17T06:53:47.962Z,41.5
2017-06-17T06:54:47.899Z,41.3
2017-06-17T06:55:47.534Z,41.3
2017-06-17T06:56:47.773Z,41.02
2017-06-17T06:57:47.711Z,41.11
2017-06-17T06:58:47.645Z,41.5
2017-06-17T06:59:47.587Z,41.5
2017-06-17T07:00:47.524Z,41.02
2017-06-17T07:01:47.461Z,41.02
2017-06-17T07:02:47.419Z,40.82
2017-06-17T07:03:47.332Z,40.44
2017-06-17T07:04:47.270Z,41.3
2017-06-17T07:05:47.211Z,41.11
2017-06-17T07:06:47.144Z,41.11
2017-06-17T07:07:47.084Z,41.11
2017-06-17T07:08:47.020Z,41.11
2017-06-17T07:09:46.960Z,41.4
2017-06-17T07:10:46.895Z,41.02
2017-06-17T07:11:46.833Z,41.11
2017-06-17T07:12:46.771Z,41.11
2017-06-17T07:13:46.709Z,40.82
2017-06-17T07:14:46.647Z,41.02
2017-06-17T07:15:46.584Z,41.02
2017-06-17T07:16:46.520Z,40.92
2017-06-17T07:17:46.459Z,40.92
2017-06-17T07:18:46.602Z,41.3
2017-06-17T07:19:46.332Z,40.82
2017-06-17T07:20:46.269Z,40.63
2017-06-17T07:21:46.207Z,40.63
2017-06-17T07:22:46.145Z,40.53
2017-06-17T07:23:46.079Z,40.82
2017-06-17T07:24:46.018Z,40.44
2017-06-17T07:25:45.958Z,40.63
2017-06-17T07:26:45.893Z,40.34
2017-06-17T07:27:45.833Z,40.15
2017-06-17T07:28:45.766Z,40.24
2017-06-17T07:29:45.703Z,40.63
2017-06-17T07:30:45.640Z,40.34
2017-06-17T07:31:45.581Z,40.05
2017-06-17T07:32:45.516Z,40.24
2017-06-17T07:33:45.453Z,40.44
2017-06-17T07:34:45.087Z,40.44
2017-06-17T07:35:45.327Z,40.05
2017-06-17T07:36:45.264Z,40.15
2017-06-17T07:37:45.202Z,40.63
2017-06-17T07:38:45.138Z,40.44
2017-06-17T07:39:45.078Z,40.72
2017-06-17T07:40:45.013Z,40.44
2017-06-17T07:41:44.953Z,40.44
2017-06-17T07:42:44.890Z,40.24
2017-06-17T07:43:44.825Z,40.34
2017-06-17T07:44:44.763Z,40.15
2017-06-17T07:45:44.703Z,40.24
2017-06-17T07:46:44.339Z,40.24
2017-06-17T07:47:44.575Z,40.53
2017-06-17T07:48:44.515Z,40.44
2017-06-17T07:49:44.451Z,40.63
2017-06-17T07:50:44.388Z,40.15
2017-06-17T07:51:44.323Z,40.44
2017-06-17T07:52:44.259Z,40.24
2017-06-17T07:53:44.199Z,40.34
2017-06-17T07:54:44.136Z,40.24
2017-06-17T07:55:44.072Z,40.24
2017-06-17T07:56:44.013Z,40.44
2017-06-17T07:57:43.950Z,40.34
2017-06-17T07:58:43.885Z,40.05
2017-06-17T07:59:43.824Z,40.34
2017-06-17T08:00:43.459Z,40.34
2017-06-17T08:01:43.698Z,40.24
2017-06-17T08:02:43.639Z,40.72
2017-06-17T08:03:43.572Z,40.15
2017-06-17T08:04:43.520Z,40.72
2017-06-17T08:05:43.449Z,40.15
2017-06-17T08:06:43.384Z,40.34
2017-06-17T08:07:43.324Z,40.15
2017-06-17T08:08:43.264Z,40.24
2017-06-17T08:09:43.196Z,40.24
2017-06-17T08:10:43.135Z,40.24
2017-06-17T08:11:43.069Z,40.24
2017-06-17T08:12:43.016Z,40.53
2017-06-17T08:13:42.943Z,40.34
2017-06-17T08:14:42.881Z,40.24
2017-06-17T08:15:42.817Z,40.24
2017-06-17T08:16:42.760Z,40.15
2017-06-17T08:17:42.693Z,40.44
2017-06-17T08:18:42.630Z,40.34
2017-06-17T08:19:42.569Z,40.34
2017-06-17T08:20:42.506Z,40.24
2017-06-17T08:21:42.442Z,40.24
2017-06-17T08:22:42.378Z,40.15
2017-06-17T08:23:42.318Z,40.44
2017-06-17T08:24:42.253Z,40.44
2017-06-17T08:25:42.190Z,40.15
2017-06-17T08:26:42.128Z,40.44
2017-06-17T08:27:42.066Z,40.15
2017-06-17T08:28:42.003Z,40.15
2017-06-17T08:29:41.941Z,40.53
2017-06-17T08:30:41.878Z,40.05
2017-06-17T08:31:41.813Z,40.15
2017-06-17T08:32:41.752Z,40.24
2017-06-17T08:33:41.688Z,40.24
2017-06-17T08:34:41.323Z,40.24
2017-06-17T08:35:41.562Z,40.24
2017-06-17T08:36:41.198Z,40.24
2017-06-17T08:37:41.135Z,40.05
2017-06-17T08:38:41.375Z,40.05
2017-06-17T08:39:41.312Z,40.15
2017-06-17T08:40:41.249Z,40.15
2017-06-17T08:41:41.189Z,40.24
2017-06-17T08:42:41.125Z,40.15
2017-06-17T08:43:40.759Z,40.24
2017-06-17T08:44:40.999Z,40.24
2017-06-17T08:45:40.937Z,40.24
2017-06-17T08:46:40.873Z,40.24
2017-06-17T08:47:40.808Z,40.05
2017-06-17T08:48:40.745Z,40.15
2017-06-17T08:49:40.384Z,40.24
2017-06-17T08:50:40.633Z,40.24
2017-06-17T08:51:40.558Z,40.24
2017-06-17T08:52:40.508Z,40.34
2017-06-17T08:53:40.448Z,40.34
2017-06-17T08:54:40.077Z,40.24
2017-06-17T08:55:40.309Z,40.34
2017-06-17T08:56:40.244Z,40.24
2017-06-17T08:57:40.180Z,40.44
2017-06-17T08:58:40.122Z,40.24
2017-06-17T08:59:40.055Z,40.34
2017-06-17T09:00:39.992Z,40.53
2017-06-17T09:01:39.931Z,40.53
2017-06-17T09:02:39.867Z,40.44
2017-06-17T09:03:39.502Z,40.34
2017-06-17T09:04:39.746Z,40.24
2017-06-17T09:05:39.678Z,40.44
2017-06-17T09:06:39.623Z,40.24
2017-06-17T09:07:39.555Z,40.24
2017-06-17T09:08:39.490Z,40.44
2017-06-17T09:09:39.426Z,40.24
2017-06-17T09:10:39.366Z,40.15
2017-06-17T09:11:39.301Z,40.15
2017-06-17T09:12:39.256Z,40.24
2017-06-17T09:13:39.176Z,40.24
2017-06-17T09:14:39.116Z,40.15
2017-06-17T09:15:39.051Z,40.24
2017-06-17T09:16:38.986Z,40.34
2017-06-17T09:17:38.928Z,40.32
2017-06-17T09:18:38.863Z,40.24
2017-06-17T09:19:38.800Z,40.24
2017-06-17T09:20:38.735Z,40.32
2017-06-17T09:21:38.677Z,40.34
2017-06-17T09:22:38.613Z,40.44
2017-06-17T09:23:38.555Z,40.05
2017-06-17T09:24:38.486Z,40.24
2017-06-17T09:25:38.421Z,40.15
2017-06-17T09:26:38.359Z,40.15
2017-06-17T09:27:38.301Z,40.12
2017-06-17T09:28:37.943Z,40.05
2017-06-17T09:29:38.173Z,40.15
2017-06-17T09:30:38.108Z,40.15
2017-06-17T09:31:37.745Z,40.44
2017-06-17T09:32:37.698Z,40.44
2017-06-17T09:33:37.920Z,40.05
2017-06-17T09:34:37.873Z,40.15
2017-06-17T09:35:37.795Z,40.32
2017-06-17T09:36:37.431Z,40.53
2017-06-17T09:37:37.367Z,40.44
2017-06-17T09:38:37.810Z,40.44
2017-06-17T09:39:37.550Z,40.44
2017-06-17T09:40:37.180Z,40.05
2017-06-17T09:41:37.117Z,40.44
2017-06-17T09:42:37.367Z,40.53
2017-06-17T09:43:36.992Z,40.34
2017-06-17T09:44:37.232Z,40.34
2017-06-17T09:45:37.167Z,40.05
2017-06-17T09:46:37.103Z,40.53
2017-06-17T09:47:37.042Z,40.05
2017-06-17T09:48:36.978Z,40.72
2017-06-17T09:49:36.917Z,40.24
2017-06-17T09:50:36.852Z,40.15
2017-06-17T09:51:36.789Z,40.15
2017-06-17T09:52:36.726Z,40.05
2017-06-17T09:53:36.664Z,40.15
2017-06-17T09:54:36.603Z,40.34
2017-06-17T09:55:36.551Z,40.24
2017-06-17T09:56:36.477Z,40.05
2017-06-17T09:57:36.412Z,40.53
2017-06-17T09:58:36.352Z,40.72
2017-06-17T09:59:36.289Z,40.05
2017-06-17T10:00:36.223Z,40.24
2017-06-17T10:01:36.166Z,40.05
2017-06-17T10:02:36.098Z,40.15
2017-06-17T10:03:36.038Z,40.15
2017-06-17T10:04:35.975Z,40.24
2017-06-17T10:05:35.609Z,40.24
2017-06-17T10:06:35.846Z,40.15
2017-06-17T10:07:35.787Z,40.53
2017-06-17T10:08:35.725Z,40.44
2017-06-17T10:09:35.685Z,40.53
2017-06-17T10:10:35.597Z,40.34
2017-06-17T10:11:35.533Z,40.44
2017-06-17T10:12:35.473Z,40.44
2017-06-17T10:13:35.106Z,40.24
2017-06-17T10:14:35.344Z,40.24
2017-06-17T10:15:35.287Z,40.15
2017-06-17T10:16:35.221Z,40.24
2017-06-17T10:17:35.156Z,40.15
2017-06-17T10:18:35.093Z,40.34
2017-06-17T10:19:34.728Z,40.15
2017-06-17T10:20:34.667Z,40.24
2017-06-17T10:21:34.905Z,40.44
2017-06-17T10:22:34.846Z,40.34
2017-06-17T10:23:34.783Z,40.44
2017-06-17T10:24:34.717Z,40.53
2017-06-17T10:25:34.654Z,40.44
2017-06-17T10:26:34.294Z,40.44
2017-06-17T10:27:34.531Z,40.53
2017-06-17T10:28:34.466Z,39.95
2017-06-17T10:29:34.402Z,39.86
2017-06-17T10:30:34.339Z,40.15
2017-06-17T10:31:34.281Z,39.86
2017-06-17T10:32:33.914Z,40.15
2017-06-17T10:33:34.152Z,40.15
2017-06-17T10:34:34.090Z,39.66
2017-06-17T10:35:34.028Z,39.76
2017-06-17T10:36:33.964Z,40.15
2017-06-17T10:37:33.901Z,39.86
2017-06-17T10:38:33.540Z,39.86
2017-06-17T10:39:33.774Z,39.76
2017-06-17T10:40:33.714Z,40.15
2017-06-17T10:41:33.651Z,40.15
2017-06-17T10:42:33.589Z,40.24
2017-06-17T10:43:33.526Z,40.15
2017-06-17T10:44:33.484Z,40.15
2017-06-17T10:45:33.099Z,40.15
2017-06-17T10:46:33.036Z,39.86
2017-06-17T10:47:32.971Z,40.15
2017-06-17T10:48:33.211Z,40.15
2017-06-17T10:49:33.149Z,40.05
2017-06-17T10:50:33.085Z,40.15
2017-06-17T10:51:33.033Z,39.95
2017-06-17T10:52:32.961Z,39.86
2017-06-17T10:53:32.899Z,39.76
2017-06-17T10:54:32.834Z,39.66
2017-06-17T10:55:32.470Z,39.66
2017-06-17T10:56:32.709Z,39.66
2017-06-17T10:57:32.645Z,39.66
2017-06-17T10:58:32.584Z,39.76
2017-06-17T10:59:32.522Z,39.76
2017-06-17T11:00:32.460Z,39.57
2017-06-17T11:01:32.395Z,39.47
2017-06-17T11:02:32.333Z,39.66
2017-06-17T11:03:31.968Z,39.57
2017-06-17T11:04:32.208Z,39.76
2017-06-17T11:05:32.149Z,39.76
2017-06-17T11:06:32.087Z,40.15
2017-06-17T11:07:31.719Z,39.86
2017-06-17T11:08:31.958Z,40.05
2017-06-17T11:09:31.893Z,40.05
2017-06-17T11:10:31.835Z,39.95
2017-06-17T11:11:31.770Z,39.86
2017-06-17T11:12:31.707Z,40.15
2017-06-17T11:13:31.645Z,40.44
2017-06-17T11:14:31.581Z,40.24
2017-06-17T11:15:31.519Z,40.44
2017-06-17T11:16:31.457Z,40.34
2017-06-17T11:17:31.392Z,40.24
2017-06-17T11:18:31.338Z,40.44
2017-06-17T11:19:31.267Z,40.34
2017-06-17T11:20:31.205Z,40.15
2017-06-17T11:21:30.860Z,40.24
2017-06-17T11:22:30.777Z,40.24
2017-06-17T11:23:31.020Z,40.24
2017-06-17T11:24:30.957Z,40.24
2017-06-17T11:25:30.890Z,40.05
2017-06-17T11:26:30.832Z,40.15
2017-06-17T11:27:30.766Z,39.95
2017-06-17T11:28:30.702Z,40.34
2017-06-17T11:29:30.640Z,40.53
2017-06-17T11:30:30.580Z,40.63
2017-06-17T11:31:30.514Z,39.95
2017-06-17T11:32:30.452Z,40.34
2017-06-17T11:33:30.391Z,40.63
2017-06-17T11:34:30.326Z,40.15
2017-06-17T11:35:30.264Z,40.53
2017-06-17T11:36:30.201Z,40.53
2017-06-17T11:37:30.138Z,40.63
2017-06-17T11:38:30.075Z,40.44
2017-06-17T11:39:30.012Z,40.53
2017-06-17T11:40:29.650Z,40.44
2017-06-17T11:41:29.887Z,40.15
2017-06-17T11:42:29.525Z,40.34
2017-06-17T11:43:29.460Z,40.53
2017-06-17T11:44:29.701Z,40.15
2017-06-17T11:45:29.634Z,40.44
2017-06-17T11:46:29.572Z,40.15
2017-06-17T11:47:29.511Z,40.15
2017-06-17T11:48:29.447Z,40.24
2017-06-17T11:49:29.084Z,40.15
2017-06-17T11:50:29.029Z,40.34
2017-06-17T11:51:28.957Z,40.34
2017-06-17T11:52:29.198Z,40.44
2017-06-17T11:53:29.133Z,40.34
2017-06-17T11:54:29.071Z,40.24
2017-06-17T11:55:29.009Z,40.15
2017-06-17T11:56:28.945Z,40.15
2017-06-17T11:57:28.881Z,40.15
2017-06-17T11:58:28.821Z,40.34
2017-06-17T11:59:28.763Z,40.34
2017-06-17T12:00:28.693Z,40.34
2017-06-17T12:01:28.630Z,40.53
2017-06-17T12:02:28.568Z,40.34
2017-06-17T12:03:28.504Z,40.05
2017-06-17T12:04:28.441Z,40.34
2017-06-17T12:05:28.379Z,40.34
2017-06-17T12:06:28.321Z,40.15
2017-06-17T12:07:28.253Z,40.53
2017-06-17T12:08:28.189Z,40.15
2017-06-17T12:09:28.126Z,40.15
2017-06-17T12:10:28.063Z,40.34
2017-06-17T12:11:28.003Z,40.15
2017-06-17T12:12:27.941Z,40.24
2017-06-17T12:13:27.875Z,40.24
2017-06-17T12:14:27.813Z,40.05
2017-06-17T12:15:27.749Z,40.53
2017-06-17T12:16:27.688Z,40.24
2017-06-17T12:17:27.626Z,40.53
2017-06-17T12:18:27.561Z,40.24
2017-06-17T12:19:27.501Z,40.34
2017-06-17T12:20:27.434Z,40.53
2017-06-17T12:21:27.372Z,40.8
2017-06-17T12:22:27.310Z,40.72
2017-06-17T12:23:27.248Z,40.34
2017-06-17T12:24:27.183Z,40.63
2017-06-17T12:25:27.122Z,40.63
2017-06-17T12:26:27.060Z,40.44
2017-06-17T12:27:27.003Z,40.63
2017-06-17T12:28:26.933Z,40.82
2017-06-17T12:29:26.867Z,40.15
2017-06-17T12:30:26.806Z,40.72
2017-06-17T12:31:26.743Z,40.63
2017-06-17T12:32:26.681Z,40.72
2017-06-17T12:33:26.317Z,40.72
2017-06-17T12:34:26.554Z,40.42
2017-06-17T12:35:26.491Z,40.44
2017-06-17T12:36:26.128Z,40.51
2017-06-17T12:37:26.370Z,40.72
2017-06-17T12:38:26.306Z,40.51
2017-06-17T12:39:26.239Z,40.63
2017-06-17T12:40:26.179Z,40.72
2017-06-17T12:41:26.120Z,40.44
2017-06-17T12:42:26.052Z,40.32
2017-06-17T12:43:25.988Z,40.24
2017-06-17T12:44:25.925Z,40.15
2017-06-17T12:45:25.863Z,40.05
2017-06-17T12:46:25.800Z,40.34
2017-06-17T12:47:25.736Z,40.34
2017-06-17T12:48:25.673Z,40.12
2017-06-17T12:49:25.612Z,40.12
2017-06-17T12:50:25.548Z,40.24
2017-06-17T12:51:25.190Z,40.12
2017-06-17T12:52:25.425Z,40.24
2017-06-17T12:53:25.361Z,40.32
2017-06-17T12:54:25.294Z,40.24
2017-06-17T12:55:25.234Z,40.34